Apgar, Montana
Current Conditions -  °F | °C
As of 3:20 AM on Thursday 27 Nov 2014 (Local Time) from KGPI Reporting Station
Haze Haze  
Wind Chill: 33°   Ceiling: 3900
Heat Index: 33°   Visibility: 2.5mi
Dew Point: 32°   Wind: 0mph
Humidity: 96%   Direction: NA
Pressure: 29.93"   Gusts: NA
Location:  48.5033°N, 113.981°W
Report Text: KGPI 271020Z AUTO 00000KT 2 1/2SM BR FEW004 OVC039 01/00 A2993 RMK AO2 T00060000
Loading
Personal Weather Stations






























Interactive Weather Map New forecast layout! Learn more

10-Day Weather Forecast

Advertisements
Track Severe Weather on mobile